Time;durP1;ratioP1;P1;durP2;ratioP2;P2;SDS_P1;SDS_P2;PMS_P1;PMS_P2;Temp;Humidity;BMP_temperature;BMP_pressure;BME280_temperature;BME280_humidity;BME280_pressure;Samples;Min_cycle;Max_cycle;Signal;HPM_P1;HPM_P2
2023/05/27 00:02:03;;;;;;;28.52;15.68;;;;;;;;;;5031320;28;20045;-74
2023/05/27 00:04:29;;;;;;;37.30;15.45;;;;;;;;;;5013262;28;20037;-74
2023/05/27 00:06:55;;;;;;;29.10;15.20;;;;;;;;;;5031130;28;20060;-75
2023/05/27 00:09:21;;;;;;;29.20;15.70;;;;;;;;;;5030801;28;20533;-75
2023/05/27 00:11:47;;;;;;;38.33;16.83;;;;;;;;;;5029695;28;20038;-75
2023/05/27 00:14:13;;;;;;;28.75;16.55;;;;;;;;;;5031051;28;20414;-74
2023/05/27 00:16:39;;;;;;;45.78;17.50;;;;;;;;;;5030931;28;20060;-74
2023/05/27 00:19:05;;;;;;;27.50;15.45;;;;;;;;;;5029738;28;20135;-74
2023/05/27 00:21:31;;;;;;;29.77;16.27;;;;;;;;;;5029725;28;20057;-73
2023/05/27 00:23:57;;;;;;;31.33;15.52;;;;;;;;;;4996869;28;20046;-73
2023/05/27 00:26:24;;;;;;;29.13;16.33;;;;;;;;;;5030445;28;20041;-74
2023/05/27 00:28:52;;;;;;;24.55;16.15;;;;;;;;;;4965194;28;20099;-74
2023/05/27 00:31:18;;;;;;;24.52;16.25;;;;;;;;;;5016731;28;20033;-74
2023/05/27 00:33:45;;;;;;;30.58;16.58;;;;;;;;;;5031530;28;20049;-74
2023/05/27 00:36:12;;;;;;;28.10;15.43;;;;;;;;;;5030709;28;20042;-74
2023/05/27 00:38:38;;;;;;;27.70;17.00;;;;;;;;;;5029262;28;20055;-75
2023/05/27 00:41:05;;;;;;;33.55;15.15;;;;;;;;;;5013003;28;20052;-74
2023/05/27 00:43:32;;;;;;;25.48;15.85;;;;;;;;;;5030162;28;20056;-73
2023/05/27 00:45:58;;;;;;;27.10;16.60;;;;;;;;;;5030409;28;20041;-74
2023/05/27 00:48:24;;;;;;;29.70;15.60;;;;;;;;;;5030113;28;20551;-74
2023/05/27 00:50:50;;;;;;;30.00;17.00;;;;;;;;;;5012683;28;20580;-74
2023/05/27 00:53:17;;;;;;;24.17;15.82;;;;;;;;;;5030410;28;20049;-73
2023/05/27 00:55:43;;;;;;;27.23;15.40;;;;;;;;;;5012489;28;20037;-75
2023/05/27 00:58:09;;;;;;;23.83;15.73;;;;;;;;;;5012353;28;20057;-74
2023/05/27 01:00:38;;;;;;;25.20;15.00;;;;;;;;;;5009676;28;20041;-74
2023/05/27 01:03:06;;;;;;;27.70;13.82;;;;;;;;;;4993890;28;20477;-74
2023/05/27 01:05:32;;;;;;;20.63;15.05;;;;;;;;;;4993249;28;20088;-75
2023/05/27 01:07:58;;;;;;;21.15;14.80;;;;;;;;;;4993861;28;20053;-73
2023/05/27 01:10:30;;;;;;;17.52;14.18;;;;;;;;;;5010220;28;20050;-73
2023/05/27 01:13:00;;;;;;;21.35;14.45;;;;;;;;;;5010630;28;20136;-73
2023/05/27 01:15:27;;;;;;;17.58;14.13;;;;;;;;;;4992742;28;20034;-74
2023/05/27 01:17:54;;;;;;;28.30;13.75;;;;;;;;;;5009264;28;20042;-74
2023/05/27 01:20:20;;;;;;;19.67;14.07;;;;;;;;;;5010004;28;20303;-74
2023/05/27 01:22:47;;;;;;;14.63;13.10;;;;;;;;;;5009120;28;20510;-73
2023/05/27 01:25:14;;;;;;;21.35;14.07;;;;;;;;;;4992766;28;20589;-74
2023/05/27 01:27:42;;;;;;;19.80;15.30;;;;;;;;;;5009944;28;20572;-74
2023/05/27 01:30:08;;;;;;;22.10;13.82;;;;;;;;;;4992658;28;20510;-73
2023/05/27 01:32:38;;;;;;;27.77;14.45;;;;;;;;;;4993891;28;20044;-75
2023/05/27 01:35:17;;;;;;;22.55;13.98;;;;;;;;;;5013219;28;20053;-74
2023/05/27 01:37:43;;;;;;;19.42;13.50;;;;;;;;;;4980165;28;20046;-74
2023/05/27 01:40:09;;;;;;;27.90;14.55;;;;;;;;;;4996607;28;20046;-74
2023/05/27 01:42:35;;;;;;;27.63;14.00;;;;;;;;;;4996183;28;20536;-75
2023/05/27 01:45:02;;;;;;;17.58;12.80;;;;;;;;;;4980149;28;20104;-74
2023/05/27 01:47:30;;;;;;;18.45;12.75;;;;;;;;;;4996074;28;20053;-75
2023/05/27 01:49:57;;;;;;;18.38;12.38;;;;;;;;;;5014275;28;20042;-74
2023/05/27 01:52:23;;;;;;;15.20;11.35;;;;;;;;;;4996577;28;20042;-76
2023/05/27 01:54:50;;;;;;;13.10;11.75;;;;;;;;;;4996345;28;20046;-75
2023/05/27 01:57:16;;;;;;;20.33;14.00;;;;;;;;;;4996588;28;20057;-75
2023/05/27 01:59:42;;;;;;;32.60;17.90;;;;;;;;;;4996219;28;20514;-74
2023/05/27 02:02:08;;;;;;;22.75;12.88;;;;;;;;;;5013887;28;20045;-74
2023/05/27 02:04:35;;;;;;;27.73;13.52;;;;;;;;;;4995885;28;20049;-74
2023/05/27 02:07:01;;;;;;;18.73;12.13;;;;;;;;;;4996220;28;20046;-76
2023/05/27 02:09:27;;;;;;;20.58;14.00;;;;;;;;;;5012606;28;20056;-75
2023/05/27 02:11:53;;;;;;;17.45;13.63;;;;;;;;;;5012912;28;20045;-73
2023/05/27 02:14:19;;;;;;;20.77;13.57;;;;;;;;;;5015713;28;20042;-73
2023/05/27 02:16:45;;;;;;;24.63;14.50;;;;;;;;;;5017906;28;20060;-76
2023/05/27 02:19:31;;;;;;;17.73;13.55;;;;;;;;;;4987970;28;20065;-75
2023/05/27 02:21:57;;;;;;;20.52;14.75;;;;;;;;;;5003036;28;20445;-75
2023/05/27 02:24:23;;;;;;;24.80;14.48;;;;;;;;;;5019848;28;20053;-76
2023/05/27 02:26:49;;;;;;;23.95;14.63;;;;;;;;;;5013996;28;20049;-75
2023/05/27 02:29:17;;;;;;;17.65;14.07;;;;;;;;;;5014055;28;20054;-75
2023/05/27 02:31:42;;;;;;;24.60;13.30;;;;;;;;;;5012233;28;20337;-74
2023/05/27 02:34:08;;;;;;;23.95;13.43;;;;;;;;;;4995755;28;20049;-75
2023/05/27 02:36:34;;;;;;;15.50;13.05;;;;;;;;;;5012882;28;20133;-75
2023/05/27 02:39:00;;;;;;;20.13;12.23;;;;;;;;;;4995809;28;20070;-75
2023/05/27 02:41:26;;;;;;;19.10;12.50;;;;;;;;;;4995264;28;20057;-75
2023/05/27 02:43:52;;;;;;;16.27;13.85;;;;;;;;;;5012495;28;20081;-74
2023/05/27 02:46:19;;;;;;;22.73;13.25;;;;;;;;;;5012820;28;20460;-75
2023/05/27 02:48:45;;;;;;;21.20;13.15;;;;;;;;;;5011427;28;20397;-74
2023/05/27 02:51:11;;;;;;;22.13;13.93;;;;;;;;;;4995192;28;20129;-76
2023/05/27 02:53:37;;;;;;;18.63;13.38;;;;;;;;;;5011379;28;20224;-74
2023/05/27 02:56:03;;;;;;;15.48;13.38;;;;;;;;;;5011492;28;20044;-74
2023/05/27 02:58:30;;;;;;;16.88;13.60;;;;;;;;;;4994844;28;20109;-74
2023/05/27 03:00:56;;;;;;;19.30;13.15;;;;;;;;;;5011398;28;20044;-74
2023/05/27 03:03:23;;;;;;;20.80;13.27;;;;;;;;;;5012686;28;20046;-74
2023/05/27 03:05:49;;;;;;;20.23;13.77;;;;;;;;;;4994480;28;20100;-75
2023/05/27 03:08:15;;;;;;;20.48;13.90;;;;;;;;;;5011411;28;20050;-75
2023/05/27 03:10:42;;;;;;;21.50;12.90;;;;;;;;;;4994482;28;20152;-73
2023/05/27 03:13:08;;;;;;;18.25;13.02;;;;;;;;;;5012442;28;20124;-73
2023/05/27 03:15:35;;;;;;;21.45;12.40;;;;;;;;;;4978527;28;20057;-75
2023/05/27 03:18:03;;;;;;;21.33;12.48;;;;;;;;;;4979049;28;20096;-74
2023/05/27 03:20:30;;;;;;;17.27;11.80;;;;;;;;;;4979491;28;20053;-75
2023/05/27 03:22:56;;;;;;;17.75;11.55;;;;;;;;;;5012504;28;20337;-73
2023/05/27 03:25:23;;;;;;;10.77;9.77;;;;;;;;;;4978990;28;20038;-75
2023/05/27 03:27:49;;;;;;;10.60;9.40;;;;;;;;;;4996854;28;20077;-73
2023/05/27 03:30:16;;;;;;;11.10;9.10;;;;;;;;;;4995033;28;20100;-74
2023/05/27 03:32:48;;;;;;;10.00;9.10;;;;;;;;;;4994349;28;20120;-74
2023/05/27 03:35:17;;;;;;;9.80;9.00;;;;;;;;;;4994469;28;20517;-73
2023/05/27 03:37:45;;;;;;;16.52;9.18;;;;;;;;;;4994287;28;20541;-75
2023/05/27 03:40:12;;;;;;;9.27;8.23;;;;;;;;;;4994567;28;20038;-75
2023/05/27 03:42:38;;;;;;;12.57;8.10;;;;;;;;;;4961840;28;20049;-73
2023/05/27 03:45:04;;;;;;;8.93;8.10;;;;;;;;;;4994375;28;20418;-75
2023/05/27 03:47:35;;;;;;;8.60;7.90;;;;;;;;;;4994319;28;20046;-75
2023/05/27 03:50:03;;;;;;;8.90;7.85;;;;;;;;;;4996699;28;20169;-74
2023/05/27 03:52:31;;;;;;;8.68;7.70;;;;;;;;;;4981251;28;20042;-73
2023/05/27 03:54:57;;;;;;;12.43;7.00;;;;;;;;;;5014183;28;20049;-74
2023/05/27 03:57:23;;;;;;;7.72;7.03;;;;;;;;;;5025763;28;20054;-74
2023/05/27 03:59:49;;;;;;;8.10;7.30;;;;;;;;;;5017835;28;20111;-75
2023/05/27 04:02:15;;;;;;;7.65;6.90;;;;;;;;;;5030944;28;20049;-74
2023/05/27 04:04:41;;;;;;;9.88;5.68;;;;;;;;;;5031123;28;20037;-73
2023/05/27 04:07:07;;;;;;;9.38;6.47;;;;;;;;;;4999882;28;20045;-74
2023/05/27 04:09:33;;;;;;;7.93;5.53;;;;;;;;;;5031771;28;20044;-74
2023/05/27 04:12:00;;;;;;;8.70;6.50;;;;;;;;;;5031098;28;20468;-74
2023/05/27 04:14:26;;;;;;;7.95;6.97;;;;;;;;;;5013586;28;20067;-73
2023/05/27 04:16:52;;;;;;;7.75;7.03;;;;;;;;;;5028151;28;20042;-74
2023/05/27 04:19:19;;;;;;;14.85;6.57;;;;;;;;;;5030925;28;20049;-73
2023/05/27 04:21:44;;;;;;;8.27;6.05;;;;;;;;;;5030564;28;20050;-73
2023/05/27 04:24:10;;;;;;;9.15;6.53;;;;;;;;;;5016332;28;20297;-74
2023/05/27 04:26:38;;;;;;;6.95;5.57;;;;;;;;;;5014950;28;20048;-73
2023/05/27 04:29:09;;;;;;;8.30;5.53;;;;;;;;;;5012706;28;20056;-74
2023/05/27 04:31:36;;;;;;;5.55;5.05;;;;;;;;;;5012161;28;20127;-74
2023/05/27 04:34:07;;;;;;;7.53;5.45;;;;;;;;;;5013069;28;20045;-73
2023/05/27 04:36:35;;;;;;;5.57;5.07;;;;;;;;;;4996242;28;20513;-72
2023/05/27 04:39:04;;;;;;;9.18;5.28;;;;;;;;;;5012791;28;20072;-72
2023/05/27 04:41:33;;;;;;;4.65;4.35;;;;;;;;;;5012178;28;20111;-72
2023/05/27 04:44:02;;;;;;;6.25;5.65;;;;;;;;;;5030378;28;20145;-72
2023/05/27 04:46:33;;;;;;;6.95;4.88;;;;;;;;;;4997193;28;20084;-72
2023/05/27 04:49:00;;;;;;;5.32;4.75;;;;;;;;;;5012775;28;20525;-72
2023/05/27 04:51:26;;;;;;;7.40;5.47;;;;;;;;;;5028494;28;20521;-71
2023/05/27 04:53:54;;;;;;;6.93;4.93;;;;;;;;;;5029174;28;20139;-72
2023/05/27 04:56:23;;;;;;;9.93;5.35;;;;;;;;;;5011294;28;20080;-71
2023/05/27 04:58:50;;;;;;;13.68;5.60;;;;;;;;;;5027790;28;20433;-72
2023/05/27 05:01:22;;;;;;;13.13;5.35;;;;;;;;;;5012005;28;20060;-73
2023/05/27 05:04:15;;;;;;;11.65;5.78;;;;;;;;;;5025619;28;20045;-74
2023/05/27 05:06:48;;;;;;;9.52;4.57;;;;;;;;;;4996144;28;20041;-73
2023/05/27 05:09:15;;;;;;;4.88;4.47;;;;;;;;;;5030093;28;20607;-75
2023/05/27 05:11:40;;;;;;;4.28;3.95;;;;;;;;;;5028654;28;20060;-75
2023/05/27 05:14:08;;;;;;;5.35;4.47;;;;;;;;;;5012549;28;20045;-73
2023/05/27 05:16:34;;;;;;;5.20;4.80;;;;;;;;;;4979712;28;20072;-74
2023/05/27 05:19:00;;;;;;;7.50;4.55;;;;;;;;;;4979982;28;20610;-74
2023/05/27 05:21:30;;;;;;;;;;;;;;;;;;5014539;28;20104;-73
2023/05/27 05:23:56;;;;;;;5.50;3.90;;;;;;;;;;5012816;28;19913;-74
2023/05/27 05:26:22;;;;;;;4.43;3.58;;;;;;;;;;5012955;28;20037;-73
2023/05/27 05:28:49;;;;;;;6.07;4.70;;;;;;;;;;5020787;28;20137;-75
2023/05/27 05:31:15;;;;;;;9.18;4.55;;;;;;;;;;4989548;28;20041;-76
2023/05/27 05:33:41;;;;;;;8.90;4.10;;;;;;;;;;4998407;28;20053;-75
2023/05/27 05:36:07;;;;;;;11.02;4.13;;;;;;;;;;4997190;28;20041;-76
2023/05/27 05:38:54;;;;;;;4.47;4.07;;;;;;;;;;5030353;28;20052;-75
2023/05/27 05:41:20;;;;;;;4.95;4.55;;;;;;;;;;5012417;28;20063;-78
2023/05/27 05:43:46;;;;;;;5.25;4.22;;;;;;;;;;5015906;28;20532;-76
2023/05/27 05:46:13;;;;;;;7.05;4.07;;;;;;;;;;5012235;28;20042;-75
2023/05/27 05:48:39;;;;;;;6.55;3.90;;;;;;;;;;5009060;28;20053;-75
2023/05/27 05:51:08;;;;;;;8.63;3.88;;;;;;;;;;4995106;28;20091;-76
2023/05/27 05:53:34;;;;;;;10.48;4.00;;;;;;;;;;5020270;28;20054;-75
2023/05/27 05:56:00;;;;;;;6.75;4.22;;;;;;;;;;4993301;28;20111;-74
2023/05/27 05:58:26;;;;;;;6.75;3.50;;;;;;;;;;4992874;28;20471;-76
2023/05/27 06:00:53;;;;;;;6.40;4.13;;;;;;;;;;4959925;28;20100;-76
2023/05/27 06:03:31;;;;;;;6.82;3.88;;;;;;;;;;4974745;28;20417;-74
2023/05/27 06:05:59;;;;;;;4.85;4.00;;;;;;;;;;4992163;28;20573;-75
2023/05/27 06:08:25;;;;;;;7.40;3.90;;;;;;;;;;4992211;28;20053;-75
2023/05/27 06:11:05;;;;;;;6.90;3.60;;;;;;;;;;4978120;28;20093;-75
2023/05/27 06:13:33;;;;;;;7.95;3.88;;;;;;;;;;4992347;28;20069;-74
2023/05/27 06:16:00;;;;;;;4.30;3.22;;;;;;;;;;5008488;28;20595;-75
2023/05/27 06:18:27;;;;;;;5.15;2.83;;;;;;;;;;5008781;28;20050;-76
2023/05/27 06:20:53;;;;;;;6.43;3.55;;;;;;;;;;5011203;28;20049;-77
2023/05/27 06:23:22;;;;;;;6.93;4.22;;;;;;;;;;4968191;28;20098;-80
2023/05/27 06:25:51;;;;;;;4.18;2.85;;;;;;;;;;5018347;28;20057;-80
2023/05/27 06:28:17;;;;;;;8.88;3.25;;;;;;;;;;4996382;28;20058;-79
2023/05/27 06:30:43;;;;;;;3.85;3.25;;;;;;;;;;5013126;28;20044;-78
2023/05/27 06:33:11;;;;;;;10.90;3.38;;;;;;;;;;4979992;28;20143;-79
2023/05/27 06:35:37;;;;;;;4.13;3.70;;;;;;;;;;4979456;28;20038;-80
2023/05/27 06:38:04;;;;;;;10.48;3.53;;;;;;;;;;4996165;28;20080;-79
2023/05/27 06:40:31;;;;;;;5.30;3.20;;;;;;;;;;4978386;28;20046;-81
2023/05/27 06:42:57;;;;;;;4.72;2.92;;;;;;;;;;4994990;28;20524;-80
2023/05/27 06:45:36;;;;;;;3.42;3.15;;;;;;;;;;4980876;28;20037;-81
2023/05/27 06:48:22;;;;;;;3.97;3.55;;;;;;;;;;4995466;28;20064;-80
2023/05/27 06:50:48;;;;;;;4.80;3.30;;;;;;;;;;5011613;28;20045;-79
2023/05/27 06:53:14;;;;;;;6.82;3.63;;;;;;;;;;4979337;28;20050;-79
2023/05/27 06:55:53;;;;;;;4.13;2.80;;;;;;;;;;5011558;28;20409;-80
2023/05/27 06:58:32;;;;;;;4.68;3.50;;;;;;;;;;5014926;28;20533;-81
2023/05/27 07:01:01;;;;;;;5.43;3.77;;;;;;;;;;4982633;28;20037;-80
2023/05/27 07:03:49;;;;;;;9.00;3.08;;;;;;;;;;5026738;28;20513;-79
2023/05/27 07:06:21;;;;;;;7.78;3.20;;;;;;;;;;4998552;28;20084;-79
2023/05/27 07:08:49;;;;;;;9.43;2.92;;;;;;;;;;5031116;28;20508;-81
2023/05/27 07:11:21;;;;;;;8.07;3.20;;;;;;;;;;4999477;28;20044;-79
2023/05/27 07:13:48;;;;;;;5.57;3.30;;;;;;;;;;5031148;28;20041;-79
2023/05/27 07:16:17;;;;;;;9.63;3.33;;;;;;;;;;5014882;28;20049;-80
2023/05/27 07:18:44;;;;;;;4.88;3.22;;;;;;;;;;5031096;28;20136;-80
2023/05/27 07:21:12;;;;;;;5.45;3.08;;;;;;;;;;4982536;28;20044;-80
2023/05/27 07:23:38;;;;;;;3.28;2.47;;;;;;;;;;5014769;28;20045;-80
2023/05/27 07:26:16;;;;;;;3.30;3.00;;;;;;;;;;5030999;28;20041;-80
2023/05/27 07:28:43;;;;;;;6.95;2.92;;;;;;;;;;4997734;28;20141;-80
2023/05/27 07:31:20;;;;;;;3.95;2.53;;;;;;;;;;5014243;28;20111;-82
2023/05/27 07:33:51;;;;;;;4.00;3.00;;;;;;;;;;5030530;28;20052;-79
2023/05/27 07:36:19;;;;;;;7.85;3.00;;;;;;;;;;4998382;28;20067;-80
2023/05/27 07:38:46;;;;;;;7.18;3.30;;;;;;;;;;5033032;28;20041;-80
2023/05/27 07:41:12;;;;;;;9.55;3.42;;;;;;;;;;5029167;28;20093;-80
2023/05/27 07:43:37;;;;;;;3.63;3.20;;;;;;;;;;5031856;28;20056;-81
2023/05/27 07:46:04;;;;;;;4.10;2.75;;;;;;;;;;5015103;28;20041;-80
2023/05/27 07:48:31;;;;;;;7.38;2.80;;;;;;;;;;5014787;28;20064;-81
2023/05/27 07:50:57;;;;;;;9.88;3.85;;;;;;;;;;5031836;28;20049;-78
2023/05/27 07:53:23;;;;;;;7.43;3.55;;;;;;;;;;4998178;28;20052;-79
2023/05/27 07:55:49;;;;;;;5.80;2.92;;;;;;;;;;5013898;28;20045;-79
2023/05/27 07:58:17;;;;;;;2.22;2.00;;;;;;;;;;4998018;28;20057;-80
2023/05/27 08:00:51;;;;;;;9.82;3.40;;;;;;;;;;5013715;28;20045;-80
2023/05/27 08:03:17;;;;;;;6.90;2.72;;;;;;;;;;5030667;28;20128;-80
2023/05/27 08:05:55;;;;;;;11.13;2.92;;;;;;;;;;5014028;28;20056;-80
2023/05/27 08:08:33;;;;;;;8.10;2.70;;;;;;;;;;5015770;28;20053;-81
2023/05/27 08:11:18;;;;;;;5.50;2.38;;;;;;;;;;4986646;28;20429;-80
2023/05/27 08:13:55;;;;;;;7.05;2.90;;;;;;;;;;5015116;28;20037;-81
2023/05/27 08:16:47;;;;;;;3.92;2.80;;;;;;;;;;5005431;28;20041;-82
2023/05/27 08:19:25;;;;;;;4.57;2.90;;;;;;;;;;5002279;28;20060;-83
2023/05/27 08:22:01;;;;;;;5.68;2.80;;;;;;;;;;5018018;28;20093;-82
2023/05/27 08:24:36;;;;;;;5.82;2.80;;;;;;;;;;5003579;28;20536;-83
2023/05/27 08:27:20;;;;;;;4.00;2.88;;;;;;;;;;5015837;28;20191;-83
2023/05/27 08:30:01;;;;;;;2.75;2.30;;;;;;;;;;5033111;28;20056;-82
2023/05/27 08:32:56;;;;;;;3.30;2.70;;;;;;;;;;5007392;28;20508;-83
2023/05/27 08:35:22;;;;;;;6.05;2.85;;;;;;;;;;5017506;28;20616;-82
2023/05/27 08:37:49;;;;;;;4.82;2.53;;;;;;;;;;5032933;28;20041;-80
2023/05/27 08:40:16;;;;;;;4.38;2.63;;;;;;;;;;5013900;28;20103;-79
2023/05/27 08:42:47;;;;;;;2.85;2.15;;;;;;;;;;5030202;28;20041;-80
2023/05/27 08:45:13;;;;;;;5.45;2.35;;;;;;;;;;4997015;28;20046;-81
2023/05/27 08:47:39;;;;;;;5.55;2.58;;;;;;;;;;4981131;28;20048;-81
2023/05/27 08:50:09;;;;;;;9.02;2.72;;;;;;;;;;5030799;28;20485;-80
2023/05/27 08:52:37;;;;;;;6.35;2.45;;;;;;;;;;5013083;28;20048;-80
2023/05/27 08:55:03;;;;;;;3.80;2.70;;;;;;;;;;4996974;28;20060;-80
2023/05/27 08:57:30;;;;;;;4.57;2.83;;;;;;;;;;5030019;28;20175;-79
2023/05/27 08:59:56;;;;;;;3.28;2.97;;;;;;;;;;4979402;28;20458;-80
2023/05/27 09:02:23;;;;;;;2.35;1.63;;;;;;;;;;5030322;28;20084;-80
2023/05/27 09:04:49;;;;;;;4.85;2.80;;;;;;;;;;5012728;28;20056;-80
2023/05/27 09:07:15;;;;;;;13.32;3.13;;;;;;;;;;5014697;28;20037;-80
2023/05/27 09:09:41;;;;;;;4.30;2.95;;;;;;;;;;5016261;28;20053;-80
2023/05/27 09:12:10;;;;;;;5.43;2.72;;;;;;;;;;5011614;28;20037;-80
2023/05/27 09:14:41;;;;;;;6.57;3.75;;;;;;;;;;5029722;28;20141;-81
2023/05/27 09:17:08;;;;;;;6.53;2.78;;;;;;;;;;4980502;28;20506;-81
2023/05/27 09:19:34;;;;;;;7.60;2.97;;;;;;;;;;5012251;28;20120;-80
2023/05/27 09:22:00;;;;;;;2.58;2.38;;;;;;;;;;5029697;28;20098;-81
2023/05/27 09:24:27;;;;;;;6.13;3.35;;;;;;;;;;5030778;28;20045;-82
2023/05/27 09:26:56;;;;;;;4.93;3.20;;;;;;;;;;5010380;28;20453;-80
2023/05/27 09:29:28;;;;;;;4.22;3.30;;;;;;;;;;5037003;28;20056;-82
2023/05/27 09:31:55;;;;;;;3.03;2.83;;;;;;;;;;5033955;28;20033;-82
2023/05/27 09:34:21;;;;;;;9.52;3.83;;;;;;;;;;5016723;28;20037;-82
2023/05/27 09:36:48;;;;;;;6.68;3.10;;;;;;;;;;5014718;28;20041;-85
2023/05/27 09:39:14;;;;;;;4.40;2.75;;;;;;;;;;5031999;28;20042;-82
2023/05/27 09:41:41;;;;;;;6.10;3.70;;;;;;;;;;5033281;28;20838;-82
2023/05/27 09:44:08;;;;;;;7.82;3.10;;;;;;;;;;4999058;28;20112;-81
2023/05/27 09:46:33;;;;;;;5.03;3.13;;;;;;;;;;4980290;28;20468;-81
2023/05/27 09:49:00;;;;;;;8.05;3.33;;;;;;;;;;5030346;28;20060;-81
2023/05/27 09:51:27;;;;;;;7.20;3.42;;;;;;;;;;5030800;28;20045;-81
2023/05/27 09:53:56;;;;;;;7.85;3.40;;;;;;;;;;5014696;28;20541;-81
2023/05/27 09:56:23;;;;;;;2.83;2.63;;;;;;;;;;5016623;28;20053;-81
2023/05/27 09:58:49;;;;;;;3.55;2.90;;;;;;;;;;5035550;28;20045;-81
2023/05/27 10:01:17;;;;;;;3.80;3.08;;;;;;;;;;5018284;28;20398;-81
2023/05/27 10:03:44;;;;;;;4.95;2.90;;;;;;;;;;5035248;28;20302;-81
2023/05/27 10:06:12;;;;;;;5.88;2.97;;;;;;;;;;5016949;28;20537;-82
2023/05/27 10:08:38;;;;;;;4.95;3.20;;;;;;;;;;5034044;28;20056;-80
2023/05/27 10:11:05;;;;;;;7.05;3.22;;;;;;;;;;5034242;28;20526;-80
2023/05/27 10:13:31;;;;;;;8.20;3.55;;;;;;;;;;5011814;28;20140;-80
2023/05/27 10:15:57;;;;;;;6.47;3.20;;;;;;;;;;5013665;28;20033;-81
2023/05/27 10:18:27;;;;;;;6.10;3.08;;;;;;;;;;4996301;28;20041;-80
2023/05/27 10:20:53;;;;;;;7.18;3.47;;;;;;;;;;4997127;28;20061;-81
2023/05/27 10:23:23;;;;;;;8.20;3.22;;;;;;;;;;5014908;28;20045;-79
2023/05/27 10:25:52;;;;;;;3.63;2.97;;;;;;;;;;5014752;28;20431;-81
2023/05/27 10:28:25;;;;;;;16.87;4.47;;;;;;;;;;5013532;28;20339;-80
2023/05/27 10:30:51;;;;;;;5.85;3.80;;;;;;;;;;5014643;28;20045;-81
2023/05/27 10:33:26;;;;;;;6.13;3.88;;;;;;;;;;5004498;28;20054;-80
2023/05/27 10:35:51;;;;;;;6.05;3.38;;;;;;;;;;5019374;28;20049;-78
2023/05/27 10:38:18;;;;;;;5.57;2.78;;;;;;;;;;5014552;28;20093;-80
2023/05/27 10:40:44;;;;;;;9.45;3.30;;;;;;;;;;5013660;28;20029;-80
2023/05/27 10:43:16;;;;;;;7.18;3.60;;;;;;;;;;4979320;28;20053;-81
2023/05/27 10:45:42;;;;;;;6.75;3.80;;;;;;;;;;5013245;28;20042;-81
2023/05/27 10:48:16;;;;;;;5.55;2.85;;;;;;;;;;5012861;28;20064;-81
2023/05/27 10:50:49;;;;;;;4.85;2.97;;;;;;;;;;4995352;28;20038;-81
2023/05/27 10:53:16;;;;;;;2.20;2.08;;;;;;;;;;4979641;28;20038;-81
2023/05/27 10:55:42;;;;;;;7.63;3.50;;;;;;;;;;5012750;28;20047;-80
2023/05/27 10:58:08;;;;;;;3.22;2.97;;;;;;;;;;5012599;28;20085;-80
2023/05/27 11:00:34;;;;;;;6.95;3.72;;;;;;;;;;4979119;28;20473;-81
2023/05/27 11:03:00;;;;;;;5.60;2.50;;;;;;;;;;5012611;28;20042;-80
2023/05/27 11:05:32;;;;;;;8.10;3.03;;;;;;;;;;5012389;28;20429;-81
2023/05/27 11:07:59;;;;;;;9.90;4.07;;;;;;;;;;4995087;28;20284;-76
2023/05/27 11:10:26;;;;;;;12.68;4.32;;;;;;;;;;4995335;28;20054;-80
2023/05/27 11:12:52;;;;;;;5.32;3.58;;;;;;;;;;5023713;28;20034;-80
2023/05/27 11:15:18;;;;;;;5.70;3.05;;;;;;;;;;5017056;28;20532;-80
2023/05/27 11:17:44;;;;;;;9.88;3.13;;;;;;;;;;4994850;28;20132;-80
2023/05/27 11:20:10;;;;;;;7.28;3.10;;;;;;;;;;4994667;28;20037;-79
2023/05/27 11:22:37;;;;;;;5.15;3.50;;;;;;;;;;4995024;28;20078;-80
2023/05/27 11:25:03;;;;;;;3.78;3.03;;;;;;;;;;5011826;28;20045;-79
2023/05/27 11:27:32;;;;;;;6.65;3.25;;;;;;;;;;5012114;28;20100;-79
2023/05/27 11:29:58;;;;;;;5.60;3.70;;;;;;;;;;4994355;28;20438;-80
2023/05/27 11:32:24;;;;;;;2.38;2.28;;;;;;;;;;5012303;28;20046;-80
2023/05/27 11:34:50;;;;;;;4.20;2.80;;;;;;;;;;5012054;28;20052;-80
2023/05/27 11:37:16;;;;;;;3.53;2.83;;;;;;;;;;4994380;28;20571;-79
2023/05/27 11:39:52;;;;;;;3.00;2.80;;;;;;;;;;5010848;28;20093;-80
2023/05/27 11:42:24;;;;;;;3.00;2.70;;;;;;;;;;4994405;28;20045;-80
2023/05/27 11:45:14;;;;;;;3.58;3.08;;;;;;;;;;4994470;28;20099;-80
2023/05/27 11:47:43;;;;;;;4.75;2.75;;;;;;;;;;4994412;28;20037;-80
2023/05/27 11:50:09;;;;;;;3.85;2.33;;;;;;;;;;4978073;28;20104;-80
2023/05/27 11:52:35;;;;;;;4.53;2.65;;;;;;;;;;5011840;28;20037;-81
2023/05/27 11:55:01;;;;;;;4.25;3.50;;;;;;;;;;4977988;28;20104;-80
2023/05/27 11:57:30;;;;;;;6.35;3.17;;;;;;;;;;5011313;28;20054;-80
2023/05/27 11:59:56;;;;;;;6.43;3.20;;;;;;;;;;5010770;28;20042;-80
2023/05/27 12:02:22;;;;;;;6.45;3.40;;;;;;;;;;5011148;28;20458;-79
2023/05/27 12:04:48;;;;;;;3.85;3.00;;;;;;;;;;4994122;28;20398;-78
2023/05/27 12:07:15;;;;;;;3.47;3.13;;;;;;;;;;5011091;28;20046;-78
2023/05/27 12:09:41;;;;;;;4.97;3.65;;;;;;;;;;4994204;28;20046;-79
2023/05/27 12:12:07;;;;;;;4.95;2.92;;;;;;;;;;5010125;28;20076;-79
2023/05/27 12:14:33;;;;;;;3.85;2.90;;;;;;;;;;5011515;28;20575;-80
2023/05/27 12:16:59;;;;;;;7.00;2.72;;;;;;;;;;4992530;28;20040;-79
2023/05/27 12:19:26;;;;;;;3.58;3.17;;;;;;;;;;5011485;28;20133;-80
2023/05/27 12:21:52;;;;;;;4.13;3.13;;;;;;;;;;4993526;28;20033;-80
2023/05/27 12:24:19;;;;;;;6.32;3.20;;;;;;;;;;5011259;28;20038;-78
2023/05/27 12:26:46;;;;;;;3.75;3.35;;;;;;;;;;4993507;28;20552;-80
2023/05/27 12:29:12;;;;;;;5.22;3.00;;;;;;;;;;4993310;28;20434;-79
2023/05/27 12:31:38;;;;;;;4.68;2.75;;;;;;;;;;4994128;28;20080;-79
2023/05/27 12:34:04;;;;;;;5.10;3.10;;;;;;;;;;5011221;28;20097;-79
2023/05/27 12:36:32;;;;;;;3.50;3.10;;;;;;;;;;5011572;28;20520;-78
2023/05/27 12:38:58;;;;;;;4.03;3.17;;;;;;;;;;4993703;28;20119;-79
2023/05/27 12:41:24;;;;;;;4.00;2.85;;;;;;;;;;5011074;28;20159;-80
2023/05/27 12:43:50;;;;;;;3.95;3.28;;;;;;;;;;5011271;28;20510;-78
2023/05/27 12:46:16;;;;;;;10.82;3.55;;;;;;;;;;5010798;28;20470;-79
2023/05/27 12:48:42;;;;;;;3.63;3.30;;;;;;;;;;4993566;28;20058;-79
2023/05/27 12:51:08;;;;;;;6.53;2.97;;;;;;;;;;5010734;28;20037;-79
2023/05/27 12:53:34;;;;;;;5.18;3.50;;;;;;;;;;4993469;28;20056;-79
2023/05/27 12:56:00;;;;;;;3.38;2.80;;;;;;;;;;5011338;28;20115;-78
2023/05/27 12:58:27;;;;;;;4.18;3.63;;;;;;;;;;5021422;28;20061;-79
2023/05/27 13:00:54;;;;;;;5.57;2.67;;;;;;;;;;4997446;28;20034;-80
2023/05/27 13:03:20;;;;;;;3.38;2.50;;;;;;;;;;5010907;28;20076;-79
2023/05/27 13:05:46;;;;;;;3.83;2.50;;;;;;;;;;4993154;28;20045;-80
2023/05/27 13:08:12;;;;;;;5.82;2.78;;;;;;;;;;4977345;28;20476;-80
2023/05/27 13:10:38;;;;;;;11.27;2.83;;;;;;;;;;4993128;28;20038;-79
2023/05/27 13:13:04;;;;;;;6.82;2.78;;;;;;;;;;5010507;28;20038;-79
2023/05/27 13:15:31;;;;;;;4.07;2.78;;;;;;;;;;4993278;28;20433;-80
2023/05/27 13:17:58;;;;;;;5.80;3.13;;;;;;;;;;4993007;28;20534;-80
2023/05/27 13:20:25;;;;;;;4.97;2.67;;;;;;;;;;5010583;28;20545;-79
2023/05/27 13:22:52;;;;;;;3.13;2.75;;;;;;;;;;5010461;28;20042;-79
2023/05/27 13:25:19;;;;;;;7.70;2.60;;;;;;;;;;4977051;28;20137;-80
2023/05/27 13:27:46;;;;;;;7.60;2.90;;;;;;;;;;5012702;28;20041;-79
2023/05/27 13:30:13;;;;;;;5.32;2.75;;;;;;;;;;5015738;28;20329;-80
2023/05/27 13:32:39;;;;;;;9.13;2.80;;;;;;;;;;5017598;28;20038;-79
2023/05/27 13:35:06;;;;;;;4.90;2.55;;;;;;;;;;5008298;28;20046;-79
2023/05/27 13:37:32;;;;;;;8.88;2.95;;;;;;;;;;5025236;28;20076;-80
2023/05/27 13:39:58;;;;;;;5.50;2.80;;;;;;;;;;4998451;28;20099;-80
2023/05/27 13:42:24;;;;;;;5.53;3.15;;;;;;;;;;5014589;28;20131;-79
2023/05/27 13:44:51;;;;;;;11.85;3.00;;;;;;;;;;5013524;28;20050;-77
2023/05/27 13:47:17;;;;;;;4.25;3.17;;;;;;;;;;5014219;28;20050;-79
2023/05/27 13:49:43;;;;;;;5.82;3.33;;;;;;;;;;4997180;28;20065;-79
2023/05/27 13:52:08;;;;;;;6.63;3.50;;;;;;;;;;5014725;28;20038;-79
2023/05/27 13:54:35;;;;;;;4.88;3.30;;;;;;;;;;4998016;28;20513;-79
2023/05/27 13:57:00;;;;;;;5.18;2.70;;;;;;;;;;4992446;28;20065;-79
2023/05/27 13:59:26;;;;;;;5.40;3.17;;;;;;;;;;4997359;28;20418;-79
2023/05/27 14:01:54;;;;;;;5.35;3.30;;;;;;;;;;5002266;28;20419;-77
2023/05/27 14:04:20;;;;;;;5.30;2.72;;;;;;;;;;4984852;28;20042;-80
2023/05/27 14:06:46;;;;;;;5.25;3.20;;;;;;;;;;4999199;28;20042;-79
2023/05/27 14:09:13;;;;;;;3.38;2.60;;;;;;;;;;4994871;28;20057;-80
2023/05/27 14:11:39;;;;;;;3.42;2.65;;;;;;;;;;4994754;28;20168;-81
2023/05/27 14:14:05;;;;;;;3.47;3.05;;;;;;;;;;4994028;28;20046;-80
2023/05/27 14:16:31;;;;;;;5.53;3.00;;;;;;;;;;4994244;28;20046;-79
2023/05/27 14:18:57;;;;;;;5.70;2.90;;;;;;;;;;4993748;28;20038;-80
2023/05/27 14:21:23;;;;;;;5.45;3.70;;;;;;;;;;4993668;28;20034;-80
2023/05/27 14:23:49;;;;;;;9.68;3.80;;;;;;;;;;4993812;28;20086;-79
2023/05/27 14:26:16;;;;;;;6.25;3.03;;;;;;;;;;4976335;28;20418;-80
2023/05/27 14:28:42;;;;;;;4.93;2.78;;;;;;;;;;4992574;28;20543;-78
2023/05/27 14:31:08;;;;;;;2.60;2.40;;;;;;;;;;4993582;28;20366;-80
2023/05/27 14:33:34;;;;;;;8.32;3.13;;;;;;;;;;4993661;28;20053;-79
2023/05/27 14:36:00;;;;;;;5.72;3.10;;;;;;;;;;4993835;28;20038;-80
2023/05/27 14:38:26;;;;;;;3.80;2.47;;;;;;;;;;4992960;28;20133;-79
2023/05/27 14:40:52;;;;;;;5.97;2.75;;;;;;;;;;4961053;28;20498;-80